createdAt,value
2019-04-21T10:41:33.103Z,23.68
2019-04-21T10:42:33.200Z,24.76
2019-04-21T10:43:33.445Z,22.97
2019-04-21T10:44:32.177Z,22.88
2019-04-21T10:45:32.788Z,22.58
2019-04-21T10:46:34.877Z,23.18
2019-04-21T10:47:32.143Z,24.45
2019-04-21T10:48:34.562Z,22.96
2019-04-21T10:49:32.757Z,22.06
2019-04-21T10:50:32.105Z,22.85
2019-04-21T10:51:32.880Z,21.17
2019-04-21T10:52:34.019Z,20.86
2019-04-21T10:53:32.086Z,20.27
2019-04-21T10:54:57.284Z,20.67
2019-04-21T10:55:48.696Z,20.26
2019-04-21T10:56:37.994Z,20.65
2019-04-21T10:57:33.041Z,21.05
2019-04-21T10:58:32.236Z,21.04
2019-04-21T10:59:33.129Z,20.73
2019-04-21T11:00:32.401Z,20.83
2019-04-21T11:01:31.995Z,20.43
2019-04-21T11:02:32.922Z,20.33
2019-04-21T11:03:33.216Z,18.16
2019-04-21T11:04:36.459Z,18.06
2019-04-21T11:05:32.953Z,18.25
2019-04-21T11:06:32.615Z,19.82
2019-04-21T11:07:39.010Z,19.42
2019-04-21T11:08:38.045Z,19.32
2019-04-21T11:09:33.946Z,19.61
2019-04-21T11:10:32.061Z,17.24
2019-04-21T11:11:32.211Z,17.05
2019-04-21T11:12:31.885Z,17.35
2019-04-21T11:13:32.637Z,16.85
2019-04-21T11:14:31.909Z,17.64
2019-04-21T11:15:32.832Z,20.01
2019-04-21T11:16:33.145Z,19.11
2019-04-21T11:17:32.335Z,18.32
2019-04-21T11:18:31.846Z,17.24
2019-04-21T11:19:32.789Z,18.41
2019-04-21T11:20:32.972Z,17.13
2019-04-21T11:21:31.784Z,15.75
2019-04-21T11:22:33.938Z,16.24
2019-04-21T11:23:33.103Z,15.16
2019-04-21T11:24:33.139Z,15.45
2019-04-21T11:25:31.742Z,15.55
2019-04-21T11:26:31.959Z,15.95
2019-04-21T11:27:33.135Z,15.55
2019-04-21T11:28:31.713Z,14.18
2019-04-21T11:29:32.966Z,16.35
2019-04-21T11:30:31.853Z,16.45
2019-04-21T11:31:31.682Z,16.64
2019-04-21T11:32:32.790Z,16.74
2019-04-21T11:33:31.658Z,16.83
2019-04-21T11:34:31.659Z,16.73
2019-04-21T11:35:32.899Z,15.75
2019-04-21T11:36:31.631Z,18.49
2019-04-21T11:37:32.317Z,18.09
2019-04-21T11:38:33.532Z,16.61
2019-04-21T11:39:42.109Z,16.71
2019-04-21T11:40:34.034Z,16.30
2019-04-21T11:41:31.919Z,16.69
2019-04-21T11:42:31.569Z,16.58
2019-04-21T11:43:32.773Z,16.88
2019-04-21T11:44:31.550Z,15.20
2019-04-21T11:45:32.676Z,16.27
2019-04-21T11:46:31.528Z,15.67
2019-04-21T11:47:32.266Z,15.38
2019-04-21T11:48:32.516Z,15.77
2019-04-21T11:49:32.593Z,16.08
2019-04-21T11:50:32.837Z,15.80
2019-04-21T11:51:31.478Z,15.72
2019-04-21T11:52:32.599Z,16.52
2019-04-21T11:53:32.773Z,16.73
2019-04-21T11:54:32.832Z,16.72
2019-04-21T11:55:34.375Z,15.33
2019-04-21T11:56:32.776Z,15.31
2019-04-21T11:57:36.741Z,15.00
2019-04-21T11:58:32.407Z,14.87
2019-04-21T11:59:31.398Z,14.28
2019-04-21T12:00:31.655Z,13.10
2019-04-21T12:01:31.892Z,13.09
2019-04-21T12:02:31.377Z,13.09
2019-04-21T12:03:31.787Z,12.68
2019-04-21T12:04:31.693Z,12.88
2019-04-21T12:05:31.365Z,13.95
2019-04-21T12:06:37.760Z,12.68
2019-04-21T12:07:33.405Z,12.29
2019-04-21T12:08:39.301Z,12.88
2019-04-21T12:09:33.294Z,12.59
2019-04-21T12:10:31.551Z,12.60
2019-04-21T12:11:31.500Z,13.97
2019-04-21T12:12:31.270Z,12.81
2019-04-21T12:13:32.193Z,13.20
2019-04-21T12:14:32.119Z,13.59
2019-04-21T12:15:31.463Z,12.52
2019-04-21T12:16:31.236Z,14.18
2019-04-21T12:17:32.074Z,13.50
2019-04-21T12:18:32.454Z,13.01
2019-04-21T12:19:32.477Z,13.99
2019-04-21T12:20:31.214Z,12.81
2019-04-21T12:21:47.979Z,13.49
2019-04-21T12:22:33.975Z,13.30
2019-04-21T12:23:32.395Z,12.81
2019-04-21T12:24:32.839Z,14.08
2019-04-21T12:25:31.399Z,13.01
2019-04-21T12:26:31.804Z,12.91
2019-04-21T12:27:32.045Z,13.60
2019-04-21T12:28:32.397Z,13.51
2019-04-21T12:29:31.103Z,14.11
2019-04-21T12:30:31.567Z,13.82
2019-04-21T12:31:31.750Z,15.10
2019-04-21T12:32:31.071Z,16.09
2019-04-21T12:33:32.086Z,16.00
2019-04-21T12:34:32.166Z,16.80
2019-04-21T12:35:31.050Z,16.90
2019-04-21T12:36:31.756Z,17.29
2019-04-21T12:37:31.047Z,16.71
2019-04-21T12:38:40.930Z,16.91
2019-04-21T12:39:32.805Z,16.33
2019-04-21T12:40:31.000Z,15.94
2019-04-21T12:41:31.018Z,17.03
2019-04-21T12:42:32.337Z,17.54
2019-04-21T12:43:30.959Z,17.54
2019-04-21T12:44:31.645Z,20.11
2019-04-21T12:45:31.598Z,17.46
2019-04-21T12:46:31.838Z,18.55
2019-04-21T12:47:32.022Z,18.66
2019-04-21T12:48:31.781Z,19.17
2019-04-21T12:49:31.791Z,19.17
2019-04-21T12:50:32.083Z,18.38
2019-04-21T12:51:30.887Z,19.09
2019-04-21T12:52:31.559Z,19.48
2019-04-21T12:53:31.906Z,20.48
2019-04-21T12:54:30.852Z,20.78
2019-04-21T12:55:36.622Z,20.28
2019-04-21T12:56:31.841Z,20.08
2019-04-21T12:57:32.809Z,19.98
2019-04-21T12:58:31.108Z,21.16
2019-04-21T12:59:34.512Z,20.65
2019-04-21T13:00:31.224Z,21.34
2019-04-21T13:01:30.888Z,19.82
2019-04-21T13:02:31.710Z,19.12
2019-04-21T13:03:32.073Z,19.80
2019-04-21T13:04:31.555Z,19.21
2019-04-21T13:05:31.631Z,18.52
2019-04-21T13:06:31.788Z,20.10
2019-04-21T13:07:31.211Z,19.50
2019-04-21T13:08:43.610Z,19.60
2019-04-21T13:09:32.467Z,17.14
2019-04-21T13:10:30.705Z,17.24
2019-04-21T13:11:31.016Z,16.64
2019-04-21T13:12:31.114Z,16.55
2019-04-21T13:13:30.646Z,17.04
2019-04-21T13:14:31.579Z,17.43
2019-04-21T13:15:31.388Z,17.94
2019-04-21T13:16:31.675Z,17.56
2019-04-21T13:17:31.115Z,17.17
2019-04-21T13:18:31.490Z,18.46
2019-04-21T13:19:31.525Z,17.68
2019-04-21T13:20:30.579Z,17.49
2019-04-21T13:21:31.910Z,17.90
2019-04-21T13:22:30.552Z,18.79
2019-04-21T13:23:31.317Z,19.49
2019-04-21T13:24:31.720Z,18.60
2019-04-21T13:25:31.687Z,18.61
2019-04-21T13:26:41.911Z,20.49
2019-04-21T13:27:31.499Z,19.60
2019-04-21T13:28:30.513Z,20.90
2019-04-21T13:29:30.490Z,19.81
2019-04-21T13:30:30.616Z,21.10
2019-04-21T13:31:30.469Z,22.39
2019-04-21T13:32:31.164Z,22.59
2019-04-21T13:33:31.223Z,20.32
2019-04-21T13:34:31.702Z,21.01
2019-04-21T13:35:30.959Z,21.01
2019-04-21T13:36:31.669Z,20.92
2019-04-21T13:37:30.403Z,21.03
2019-04-21T13:38:38.733Z,20.92
2019-04-21T13:39:55.583Z,22.71
2019-04-21T13:40:51.762Z,21.53
2019-04-21T13:41:42.898Z,21.33
2019-04-21T13:42:39.466Z,21.24
2019-04-21T13:43:32.860Z,21.54
2019-04-21T13:44:30.942Z,20.56
2019-04-21T13:45:30.310Z,22.55
2019-04-21T13:46:31.096Z,23.04
2019-04-21T13:47:30.558Z,22.14
2019-04-21T13:48:30.706Z,22.25
2019-04-21T13:49:31.532Z,22.16
2019-04-21T13:50:31.176Z,23.15
2019-04-21T13:51:31.147Z,24.65
2019-04-21T13:52:30.950Z,24.75
2019-04-21T13:53:32.581Z,25.55
2019-04-21T13:54:31.506Z,26.54
2019-04-21T13:55:31.756Z,24.55
2019-04-21T13:56:30.196Z,24.55
2019-04-21T13:57:30.462Z,24.16
2019-04-21T13:58:30.492Z,25.15
2019-04-21T13:59:30.166Z,25.35
2019-04-21T14:00:31.657Z,24.57
2019-04-21T14:01:30.141Z,24.57
2019-04-21T14:02:30.955Z,24.87
2019-04-21T14:03:31.327Z,25.66
2019-04-21T14:04:31.415Z,23.78
2019-04-21T14:05:30.673Z,23.08
2019-04-21T14:06:30.249Z,24.77
2019-04-21T14:07:30.303Z,23.68
2019-04-21T14:08:31.295Z,24.48
2019-04-21T14:09:40.411Z,25.57
2019-04-21T14:10:31.539Z,24.59
2019-04-21T14:11:31.324Z,25.37
2019-04-21T14:12:30.037Z,25.97
2019-04-21T14:13:30.344Z,25.49
2019-04-21T14:14:30.394Z,26.08
2019-04-21T14:15:30.366Z,25.38
2019-04-21T14:16:30.010Z,25.78
2019-04-21T14:17:30.943Z,27.08
2019-04-21T14:18:30.986Z,25.49
2019-04-21T14:19:31.045Z,26.08
2019-04-21T14:20:31.107Z,25.09
2019-04-21T14:21:31.298Z,24.49
2019-04-21T14:22:29.926Z,23.19
2019-04-21T14:23:37.477Z,25.38
2019-04-21T14:24:31.037Z,25.70
2019-04-21T14:25:29.995Z,25.70
2019-04-21T14:26:30.033Z,24.99
2019-04-21T14:27:30.161Z,25.40
2019-04-21T14:28:30.309Z,24.10
2019-04-21T14:29:31.231Z,25.50
2019-04-21T14:30:30.471Z,25.70
2019-04-21T14:31:30.443Z,24.90
2019-04-21T14:32:29.841Z,25.20
2019-04-21T14:33:29.924Z,23.91
2019-04-21T14:34:30.231Z,23.12
2019-04-21T14:35:29.792Z,23.82
2019-04-21T14:36:30.707Z,23.63
2019-04-21T14:37:30.832Z,24.62
2019-04-21T14:38:29.752Z,24.22
2019-04-21T14:39:30.391Z,23.33
2019-04-21T14:40:32.873Z,23.72
2019-04-21T14:41:30.389Z,25.02
2019-04-21T14:42:29.925Z,25.92
2019-04-21T14:43:30.103Z,25.42
2019-04-21T14:44:31.016Z,25.62
2019-04-21T14:45:30.408Z,25.92
2019-04-21T14:46:31.148Z,25.52
2019-04-21T14:47:29.669Z,25.42
2019-04-21T14:48:29.724Z,25.84
2019-04-21T14:49:30.969Z,25.82
2019-04-21T14:50:30.385Z,26.02
2019-04-21T14:51:29.606Z,25.62
2019-04-21T14:52:30.844Z,24.74
2019-04-21T14:53:29.760Z,24.63
2019-04-21T14:54:30.883Z,24.44
2019-04-21T14:55:31.081Z,24.74
2019-04-21T14:56:29.556Z,24.24
2019-04-21T14:57:29.625Z,24.33
2019-04-21T14:58:30.741Z,25.34
2019-04-21T14:59:31.001Z,24.54
2019-04-21T15:00:29.509Z,24.04
2019-04-21T15:01:29.500Z,25.45
2019-04-21T15:02:29.917Z,25.85
2019-04-21T15:03:29.961Z,25.45
2019-04-21T15:04:29.465Z,25.35
2019-04-21T15:05:29.455Z,23.35
2019-04-21T15:06:29.597Z,24.35
2019-04-21T15:07:30.840Z,24.65
2019-04-21T15:08:29.435Z,24.95
2019-04-21T15:09:29.560Z,26.64
2019-04-21T15:10:32.197Z,24.65
2019-04-21T15:11:29.881Z,24.75
2019-04-21T15:12:29.957Z,23.65
2019-04-21T15:13:29.995Z,23.76
2019-04-21T15:14:29.811Z,23.96
2019-04-21T15:15:29.959Z,23.96
2019-04-21T15:16:29.338Z,23.46
2019-04-21T15:17:29.449Z,23.66
2019-04-21T15:18:30.647Z,23.86
2019-04-21T15:19:30.482Z,25.26
2019-04-21T15:20:30.892Z,25.36
2019-04-21T15:21:29.283Z,25.26
2019-04-21T15:22:30.462Z,24.86
2019-04-21T15:23:30.507Z,24.66
2019-04-21T15:24:30.210Z,25.06
2019-04-21T15:25:30.201Z,24.76
2019-04-21T15:26:30.456Z,24.76
2019-04-21T15:27:30.615Z,25.96
2019-04-21T15:28:32.128Z,24.56
2019-04-21T15:29:29.199Z,24.26
2019-04-21T15:30:29.193Z,25.36
2019-04-21T15:31:33.882Z,25.27
2019-04-21T15:32:30.633Z,23.47
2019-04-21T15:33:29.167Z,25.47
2019-04-21T15:34:29.842Z,25.87
2019-04-21T15:35:29.135Z,26.17
2019-04-21T15:36:31.767Z,25.87
2019-04-21T15:37:29.115Z,26.17
2019-04-21T15:38:29.829Z,26.47
2019-04-21T15:39:29.834Z,26.87
2019-04-21T15:40:40.695Z,26.67
2019-04-21T15:41:30.285Z,27.07
2019-04-21T15:42:30.553Z,26.47
2019-04-21T15:43:29.064Z,25.87
2019-04-21T15:44:30.406Z,25.57
2019-04-21T15:45:30.500Z,25.67
2019-04-21T15:46:31.775Z,26.47
2019-04-21T15:47:29.005Z,25.47
2019-04-21T15:48:29.011Z,26.17
2019-04-21T15:49:43.475Z,25.57
2019-04-21T15:50:30.245Z,25.59
2019-04-21T15:51:29.624Z,26.58
2019-04-21T15:52:29.918Z,26.98
2019-04-21T15:53:29.799Z,27.68
2019-04-21T15:54:28.969Z,25.68
2019-04-21T15:55:28.924Z,25.68
2019-04-21T15:56:28.974Z,26.08
2019-04-21T15:57:30.049Z,26.48
2019-04-21T15:58:30.356Z,26.58
2019-04-21T15:59:28.890Z,24.38
2019-04-21T16:00:28.869Z,25.09
2019-04-21T16:01:30.251Z,25.38
2019-04-21T16:02:28.850Z,25.68
2019-04-21T16:03:29.032Z,24.98
2019-04-21T16:04:28.835Z,26.48
2019-04-21T16:05:28.816Z,25.78
2019-04-21T16:06:29.663Z,26.08
2019-04-21T16:07:29.889Z,26.58
2019-04-21T16:08:29.081Z,26.39
2019-04-21T16:09:30.701Z,27.50
2019-04-21T16:10:38.618Z,25.70
2019-04-21T16:11:29.753Z,25.49
2019-04-21T16:12:29.668Z,25.99
2019-04-21T16:13:29.912Z,27.59
2019-04-21T16:14:29.098Z,27.00
2019-04-21T16:15:28.716Z,25.90
2019-04-21T16:16:30.865Z,25.10
2019-04-21T16:17:29.590Z,25.60
2019-04-21T16:18:29.931Z,26.50
2019-04-21T16:19:29.332Z,26.29
2019-04-21T16:20:29.987Z,26.59
2019-04-21T16:21:29.544Z,25.79
2019-04-21T16:22:28.733Z,25.70
2019-04-21T16:23:28.807Z,26.29
2019-04-21T16:24:28.628Z,25.49
2019-04-21T16:25:28.753Z,26.40
2019-04-21T16:26:28.852Z,26.79
2019-04-21T16:27:29.597Z,25.31
2019-04-21T16:28:29.005Z,25.11
2019-04-21T16:29:29.252Z,25.91
2019-04-21T16:30:28.729Z,26.01
2019-04-21T16:31:30.048Z,27.21
2019-04-21T16:32:28.569Z,26.51
2019-04-21T16:33:29.268Z,26.81
2019-04-21T16:34:39.035Z,26.41
2019-04-21T16:35:29.664Z,26.51
2019-04-21T16:36:29.530Z,25.91
2019-04-21T16:37:29.673Z,27.21
2019-04-21T16:38:29.306Z,26.91
2019-04-21T16:39:29.451Z,25.61
2019-04-21T16:40:39.825Z,26.41
2019-04-21T16:41:29.429Z,25.21
2019-04-21T16:42:28.436Z,25.81
2019-04-21T16:43:29.142Z,25.91
2019-04-21T16:44:29.428Z,26.10
2019-04-21T16:45:28.700Z,25.82
2019-04-21T16:46:29.520Z,25.82
2019-04-21T16:47:28.399Z,25.92
2019-04-21T16:48:28.355Z,24.72
2019-04-21T16:49:29.577Z,25.82
2019-04-21T16:50:29.677Z,25.72
2019-04-21T16:51:28.528Z,25.62
2019-04-21T16:52:28.312Z,25.72
2019-04-21T16:53:28.324Z,25.02
2019-04-21T16:54:28.292Z,25.72
2019-04-21T16:55:28.845Z,25.53
2019-04-21T16:56:29.083Z,26.03
2019-04-21T16:57:28.268Z,25.83
2019-04-21T16:58:29.034Z,25.52
2019-04-21T16:59:28.677Z,25.63
2019-04-21T17:00:40.173Z,25.83
2019-04-21T17:01:30.174Z,25.83
2019-04-21T17:02:28.406Z,26.64
2019-04-21T17:03:28.396Z,26.53
2019-04-21T17:04:28.756Z,26.53
2019-04-21T17:05:28.181Z,25.93
2019-04-21T17:06:29.216Z,26.43
2019-04-21T17:07:28.254Z,27.73
2019-04-21T17:08:28.163Z,27.73
2019-04-21T17:09:28.552Z,26.64
2019-04-21T17:10:28.772Z,27.53
2019-04-21T17:11:31.698Z,28.23
2019-04-21T17:12:30.667Z,27.94
2019-04-21T17:13:29.574Z,26.73
2019-04-21T17:14:45.294Z,25.63
2019-04-21T17:15:48.206Z,25.73
2019-04-21T17:16:57.649Z,26.03
2019-04-21T17:17:50.048Z,25.73
2019-04-21T17:18:43.468Z,26.25
2019-04-21T17:19:33.111Z,26.25
2019-04-21T17:20:39.884Z,26.45
2019-04-21T17:21:30.070Z,27.75
2019-04-21T17:22:28.113Z,27.25
2019-04-21T17:23:29.339Z,27.65
2019-04-21T17:24:28.610Z,27.23
2019-04-21T17:25:29.726Z,28.23
2019-04-21T17:26:29.037Z,27.45
2019-04-21T17:27:29.225Z,27.25
2019-04-21T17:28:27.928Z,27.85
2019-04-21T17:29:28.505Z,26.65
2019-04-21T17:30:28.444Z,26.75
2019-04-21T17:31:28.827Z,27.35
2019-04-21T17:32:34.376Z,28.25
2019-04-21T17:33:30.383Z,26.84
2019-04-21T17:34:30.204Z,26.84
2019-04-21T17:35:28.977Z,26.75
2019-04-21T17:36:29.322Z,26.65
2019-04-21T17:37:29.205Z,27.45
2019-04-21T17:38:28.028Z,27.35
2019-04-21T17:39:28.919Z,26.65
2019-04-21T17:40:27.829Z,27.25
2019-04-21T17:41:33.998Z,26.54
2019-04-21T17:42:36.301Z,27.85
2019-04-21T17:43:29.876Z,27.55
2019-04-21T17:44:27.828Z,28.05
2019-04-21T17:45:28.963Z,27.95
2019-04-21T17:46:36.563Z,28.15
2019-04-21T17:47:38.404Z,27.95
2019-04-21T17:48:29.268Z,27.95
2019-04-21T17:49:28.784Z,27.96
2019-04-21T17:50:27.688Z,27.46
2019-04-21T17:51:27.708Z,27.56
2019-04-21T17:52:35.235Z,28.26
2019-04-21T17:53:34.624Z,27.76
2019-04-21T17:54:35.644Z,26.26
2019-04-21T17:55:33.600Z,26.65
2019-04-21T17:56:53.664Z,28.06
2019-04-21T17:57:51.803Z,26.86
2019-04-21T17:58:55.163Z,26.56
2019-04-21T17:59:56.337Z,27.56
2019-04-21T18:01:09.257Z,27.26
2019-04-21T18:01:48.624Z,27.96
2019-04-21T18:02:51.829Z,27.76
2019-04-21T18:03:53.559Z,27.26
2019-04-21T18:04:49.303Z,27.36
2019-04-21T18:05:47.040Z,26.86
2019-04-21T18:06:46.716Z,27.66
2019-04-21T18:07:46.527Z,27.56
2019-04-21T18:08:48.330Z,27.86
2019-04-21T18:09:51.077Z,27.96
2019-04-21T18:10:43.998Z,27.27
2019-04-21T18:11:46.903Z,26.67
2019-04-21T18:12:42.465Z,26.87
2019-04-21T18:13:28.771Z,26.37
2019-04-21T18:14:28.467Z,26.07
2019-04-21T18:15:40.257Z,26.37
2019-04-21T18:16:34.237Z,26.67
2019-04-21T18:17:28.770Z,26.57
2019-04-21T18:18:28.741Z,26.37
2019-04-21T18:19:31.051Z,27.78
2019-04-21T18:20:28.371Z,27.37
2019-04-21T18:21:27.371Z,27.27
2019-04-21T18:22:34.246Z,27.37
2019-04-21T18:23:39.432Z,27.87
2019-04-21T18:24:41.132Z,27.47
2019-04-21T18:25:44.415Z,27.87
2019-04-21T18:26:38.010Z,27.78
2019-04-21T18:27:29.781Z,27.79
2019-04-21T18:28:28.442Z,27.59
2019-04-21T18:29:27.727Z,26.98
2019-04-21T18:30:28.378Z,26.78
2019-04-21T18:31:33.910Z,27.79
2019-04-21T18:32:34.142Z,26.98
2019-04-21T18:33:33.835Z,27.69
2019-04-21T18:34:30.682Z,26.48
2019-04-21T18:35:29.297Z,27.29
2019-04-21T18:36:34.101Z,26.58
2019-04-21T18:37:35.026Z,26.68
2019-04-21T18:38:43.126Z,26.79
2019-04-21T18:39:45.388Z,26.50
2019-04-21T18:40:34.848Z,28.00
2019-04-21T18:41:30.135Z,27.90
2019-04-21T18:42:47.875Z,26.79
2019-04-21T18:43:56.752Z,27.30
2019-04-21T18:45:07.632Z,26.79
2019-04-21T18:45:57.267Z,27.99
2019-04-21T18:46:55.575Z,28.10
2019-04-21T18:47:39.876Z,28.10
2019-04-21T18:48:37.053Z,27.80
2019-04-21T18:49:29.170Z,27.10
2019-04-21T18:50:29.365Z,28.60
2019-04-21T18:51:39.171Z,28.70
2019-04-21T18:52:45.338Z,28.10
2019-04-21T18:53:47.006Z,28.00
2019-04-21T18:54:45.844Z,28.10
2019-04-21T18:55:34.254Z,27.90
2019-04-21T18:56:29.547Z,28.20
2019-04-21T18:57:36.726Z,27.80
2019-04-21T18:58:28.802Z,28.20
2019-04-21T18:59:33.913Z,27.60
2019-04-21T19:00:31.769Z,28.22
2019-04-21T19:01:31.320Z,27.91
2019-04-21T19:02:31.759Z,28.30
2019-04-21T19:03:35.403Z,29.00
2019-04-21T19:04:30.053Z,28.92
2019-04-21T19:05:29.675Z,28.10
2019-04-21T19:06:48.389Z,28.62
2019-04-21T19:07:45.456Z,29.62
2019-04-21T19:08:46.601Z,29.62
2019-04-21T19:10:11.386Z,30.02
2019-04-21T19:10:50.306Z,29.52
2019-04-21T19:11:49.714Z,29.32
2019-04-21T19:13:16.164Z,29.32
2019-04-21T19:13:51.151Z,29.82
2019-04-21T19:14:46.027Z,29.42
2019-04-21T19:16:07.571Z,30.12
2019-04-21T19:16:47.554Z,31.23
2019-04-21T19:18:53.059Z,29.93
2019-04-21T19:20:10.610Z,30.32
2019-04-21T19:20:46.332Z,29.83
2019-04-21T19:21:49.916Z,30.84
2019-04-21T19:22:45.768Z,30.84
2019-04-21T19:23:59.261Z,29.33
2019-04-21T19:24:48.655Z,30.24
2019-04-21T19:25:49.968Z,30.73
2019-04-21T19:26:52.515Z,31.65
2019-04-21T19:27:45.502Z,32.55
2019-04-21T19:28:54.780Z,32.35
2019-04-21T19:29:53.955Z,31.95
2019-04-21T19:30:49.963Z,31.74
2019-04-21T19:31:49.574Z,31.24
2019-04-21T19:32:45.409Z,31.74
2019-04-21T19:33:36.241Z,32.05
2019-04-21T19:34:33.701Z,32.24
2019-04-21T19:35:27.852Z,30.74
2019-04-21T19:36:29.148Z,30.14
2019-04-21T19:37:28.892Z,31.45
2019-04-21T19:38:34.986Z,31.85
2019-04-21T19:39:43.371Z,31.46
2019-04-21T19:40:44.735Z,30.96
2019-04-21T19:41:41.155Z,30.76
2019-04-21T19:42:38.299Z,30.76
2019-04-21T19:43:45.998Z,29.95
2019-04-21T19:44:47.214Z,30.76
2019-04-21T19:45:38.121Z,30.35
2019-04-21T19:46:38.239Z,30.46
2019-04-21T19:47:48.807Z,30.05
2019-04-21T19:48:55.282Z,30.26
2019-04-21T19:49:49.687Z,29.55
2019-04-21T19:50:47.320Z,29.86
2019-04-21T19:51:40.552Z,29.85
2019-04-21T19:52:41.030Z,30.55
2019-04-21T19:53:41.588Z,30.65
2019-04-21T19:54:33.948Z,31.05
2019-04-21T19:55:27.814Z,30.55
2019-04-21T19:56:26.335Z,30.77
2019-04-21T19:57:27.244Z,30.36
2019-04-21T19:58:33.003Z,30.16
2019-04-21T19:59:34.647Z,30.57
2019-04-21T20:00:28.494Z,30.67
2019-04-21T20:01:27.594Z,31.17
2019-04-21T20:02:26.798Z,30.97
2019-04-21T20:03:26.416Z,30.36
2019-04-21T20:04:34.113Z,30.16
2019-04-21T20:05:36.083Z,30.57
2019-04-21T20:06:42.099Z,30.47
2019-04-21T20:07:43.875Z,30.47
2019-04-21T20:08:41.858Z,30.27
2019-04-21T20:09:43.296Z,30.79
2019-04-21T20:10:52.867Z,30.57
2019-04-21T20:11:41.739Z,30.68
2019-04-21T20:12:47.413Z,30.58
2019-04-21T20:14:27.597Z,31.79
2019-04-21T20:15:44.850Z,30.87
2019-04-21T20:16:45.274Z,31.29
2019-04-21T20:17:42.333Z,31.29
2019-04-21T20:18:34.815Z,31.49
2019-04-21T20:19:27.084Z,31.27
2019-04-21T20:20:26.933Z,30.97
2019-04-21T20:21:26.829Z,31.49
2019-04-21T20:22:32.732Z,31.49
2019-04-21T20:23:31.877Z,30.99
2019-04-21T20:24:31.621Z,31.69
2019-04-21T20:25:27.600Z,31.39
2019-04-21T20:26:31.334Z,31.09
2019-04-21T20:27:38.522Z,30.68
2019-04-21T20:28:44.336Z,32.39
2019-04-21T20:29:44.548Z,30.88
2019-04-21T20:30:42.624Z,31.60
2019-04-21T20:31:40.949Z,31.99
2019-04-21T20:32:48.853Z,31.00
2019-04-21T20:34:46.102Z,32.01
2019-04-21T20:35:53.400Z,31.91
2019-04-21T20:36:51.826Z,31.71
2019-04-21T20:37:42.288Z,32.31
2019-04-21T20:38:35.604Z,32.31
2019-04-21T20:39:38.249Z,32.41
2019-04-21T20:40:36.156Z,33.22
2019-04-21T20:41:40.642Z,32.61
2019-04-21T20:42:42.728Z,32.41
2019-04-21T20:43:46.523Z,32.81
2019-04-21T20:44:43.814Z,32.61
2019-04-21T20:45:49.446Z,33.31
2019-04-21T20:46:41.343Z,33.31
2019-04-21T20:47:35.583Z,33.22
2019-04-21T20:48:42.792Z,33.22
2019-04-21T20:49:35.235Z,32.12
2019-04-21T20:50:36.380Z,32.53
2019-04-21T20:51:46.863Z,32.43
2019-04-21T20:52:48.923Z,32.63
2019-04-21T20:53:41.561Z,33.03
2019-04-21T20:54:44.044Z,33.03
2019-04-21T20:55:42.971Z,34.14
2019-04-21T20:56:45.222Z,33.23
2019-04-21T20:57:40.838Z,33.85
2019-04-21T20:58:45.244Z,34.45
2019-04-21T20:59:36.971Z,33.45
2019-04-21T21:00:54.581Z,33.15
2019-04-21T21:01:43.322Z,32.95
2019-04-21T21:02:49.067Z,34.05
2019-04-21T21:03:43.235Z,33.85
2019-04-21T21:04:37.047Z,33.35
2019-04-21T21:05:39.878Z,34.16
2019-04-21T21:06:42.306Z,33.25
2019-04-21T21:07:47.273Z,34.36
2019-04-21T21:08:44.966Z,33.35
2019-04-21T21:09:41.236Z,33.65
2019-04-21T21:10:38.823Z,33.25
2019-04-21T21:11:46.728Z,32.64
2019-04-21T21:12:52.730Z,31.73
2019-04-21T21:13:44.477Z,33.26
2019-04-21T21:14:42.176Z,32.96
2019-04-21T21:15:44.573Z,31.95
2019-04-21T21:16:46.304Z,32.66
2019-04-21T21:19:48.673Z,32.56
2019-04-21T21:20:43.527Z,32.35
2019-04-21T21:21:40.217Z,31.95
2019-04-21T21:23:42.500Z,31.67
2019-04-21T21:24:49.544Z,32.07
2019-04-21T21:25:45.207Z,31.96
2019-04-21T21:26:47.091Z,32.17
2019-04-21T21:27:41.825Z,31.76
2019-04-21T21:28:39.051Z,32.18
2019-04-21T21:29:47.543Z,31.27
2019-04-21T21:30:37.539Z,31.88
2019-04-21T21:31:41.794Z,31.48
2019-04-21T21:32:42.803Z,31.58
2019-04-21T21:33:50.662Z,31.88
2019-04-21T21:34:45.395Z,31.68
2019-04-21T21:35:39.557Z,30.87
2019-04-21T21:36:43.513Z,31.48
2019-04-21T21:37:41.659Z,31.48
2019-04-21T21:38:45.881Z,31.88
2019-04-21T21:39:52.000Z,31.58
2019-04-21T21:40:42.816Z,31.18
2019-04-21T21:41:32.322Z,31.88
2019-04-21T21:42:31.881Z,31.68
2019-04-21T21:43:28.706Z,31.38
2019-04-21T21:44:28.206Z,31.88
2019-04-21T21:45:27.526Z,31.68
2019-04-21T21:46:40.154Z,31.49
2019-04-21T21:47:46.145Z,31.58
2019-04-21T21:48:40.808Z,30.98
2019-04-21T21:49:37.103Z,30.58
2019-04-21T21:50:35.783Z,31.19
2019-04-21T21:51:42.254Z,31.49
2019-04-21T21:52:39.940Z,31.09
2019-04-21T21:53:28.902Z,31.70
2019-04-21T21:54:27.628Z,31.19
2019-04-21T21:55:25.631Z,31.39
2019-04-21T21:56:25.059Z,31.49
2019-04-21T21:57:26.160Z,31.70
2019-04-21T21:58:31.084Z,31.70
2019-04-21T21:59:29.384Z,30.58
2019-04-21T22:00:26.099Z,31.49
2019-04-21T22:01:31.877Z,31.59
2019-04-21T22:02:35.315Z,31.20
2019-04-21T22:03:31.782Z,31.49
2019-04-21T22:04:28.861Z,30.90
2019-04-21T22:05:29.298Z,31.20
2019-04-21T22:06:38.731Z,30.40
2019-04-21T22:07:31.026Z,30.90
2019-04-21T22:08:25.910Z,31.30
2019-04-21T22:09:26.165Z,30.90
2019-04-21T22:10:25.302Z,30.30
2019-04-21T22:11:26.025Z,30.80
2019-04-21T22:12:25.841Z,31.30
2019-04-21T22:13:35.472Z,31.20
2019-04-21T22:14:34.062Z,30.40
2019-04-21T22:15:29.504Z,31.81
2019-04-21T22:16:38.869Z,31.41
2019-04-21T22:17:41.968Z,31.91
2019-04-21T22:18:43.310Z,31.62
2019-04-21T22:19:55.923Z,30.62
2019-04-21T22:20:44.484Z,31.02
2019-04-21T22:21:49.378Z,30.51
2019-04-21T22:22:40.146Z,31.02
2019-04-21T22:23:36.754Z,31.82
2019-04-21T22:24:43.974Z,30.62
2019-04-21T22:25:29.957Z,31.02
2019-04-21T22:26:27.190Z,31.02
2019-04-21T22:27:25.319Z,31.23
2019-04-21T22:28:25.378Z,31.84
2019-04-21T22:29:27.919Z,31.43
2019-04-21T22:30:34.413Z,31.03
2019-04-21T22:31:31.868Z,31.54
2019-04-21T22:32:29.004Z,31.23
2019-04-21T22:33:25.994Z,32.24
2019-04-21T22:34:30.234Z,32.04
2019-04-21T22:35:34.452Z,32.24
2019-04-21T22:36:36.565Z,31.74
2019-04-21T22:37:38.040Z,31.43
2019-04-21T22:38:40.895Z,32.14
2019-04-21T22:39:44.910Z,31.74
2019-04-21T22:40:42.941Z,31.84
2019-04-21T22:41:33.714Z,32.76
2019-04-21T22:42:29.605Z,32.46
2019-04-21T22:43:32.500Z,32.16
2019-04-21T22:44:25.519Z,31.76
2019-04-21T22:45:25.192Z,32.26
2019-04-21T22:46:24.532Z,32.26
2019-04-21T22:47:31.665Z,32.36
2019-04-21T22:48:28.646Z,31.85
2019-04-21T22:49:24.470Z,31.55
2019-04-21T22:50:24.654Z,32.06
2019-04-21T22:51:34.858Z,32.16
2019-04-21T22:52:29.544Z,31.43
2019-04-21T22:53:29.157Z,31.45
2019-04-21T22:54:31.860Z,31.45
2019-04-21T22:55:29.082Z,31.87
2019-04-21T22:56:30.066Z,31.15
2019-04-21T22:57:28.742Z,31.76
2019-04-21T22:58:33.164Z,31.76
2019-04-21T22:59:26.770Z,31.67
2019-04-21T23:00:25.618Z,31.45
2019-04-21T23:01:33.707Z,31.46
2019-04-21T23:02:29.664Z,31.76
2019-04-21T23:03:28.204Z,31.77
2019-04-21T23:04:25.446Z,31.57
2019-04-21T23:05:30.290Z,31.67
2019-04-21T23:06:29.020Z,31.87
2019-04-21T23:07:26.668Z,32.28
2019-04-21T23:08:30.419Z,32.16
2019-04-21T23:09:26.596Z,31.76
2019-04-21T23:10:25.373Z,31.57
2019-04-21T23:11:28.014Z,32.28
2019-04-21T23:12:28.251Z,31.46
2019-04-21T23:13:27.296Z,31.16
2019-04-21T23:14:25.768Z,31.26
2019-04-21T23:15:33.211Z,31.77
2019-04-21T23:16:31.103Z,31.97
2019-04-21T23:17:48.284Z,31.77
2019-04-21T23:18:39.038Z,31.67
2019-04-21T23:19:39.910Z,32.28
2019-04-21T23:20:43.337Z,31.28
2019-04-21T23:21:36.342Z,31.78
2019-04-21T23:22:55.003Z,31.18
2019-04-21T23:23:44.126Z,31.38
2019-04-21T23:24:45.525Z,31.99
2019-04-21T23:25:39.940Z,31.78
2019-04-21T23:26:40.998Z,32.19
2019-04-21T23:27:46.850Z,31.28
2019-04-21T23:28:45.676Z,32.39
2019-04-21T23:29:52.452Z,31.48
2019-04-21T23:30:49.806Z,31.78
2019-04-21T23:31:47.843Z,31.78
2019-04-21T23:32:35.964Z,31.58
2019-04-21T23:33:25.746Z,31.29
2019-04-21T23:34:29.005Z,32.20
2019-04-21T23:35:32.242Z,32.59
2019-04-21T23:36:29.683Z,31.58
2019-04-21T23:37:27.180Z,31.88
2019-04-21T23:38:31.800Z,32.70
2019-04-21T23:39:28.955Z,31.68